createdAt,value
2023-03-12T00:01:34.607Z,37.95
2023-03-12T00:04:05.575Z,36.05
2023-03-12T00:06:35.889Z,35.35
2023-03-12T00:09:06.583Z,32.00
2023-03-12T00:11:37.004Z,39.05
2023-03-12T00:14:07.569Z,43.33
2023-03-12T00:16:40.568Z,35.45
2023-03-12T00:19:11.023Z,38.63
2023-03-12T00:21:41.599Z,40.67
2023-03-12T00:24:12.116Z,38.97
2023-03-12T00:26:47.286Z,33.50
2023-03-12T00:29:19.338Z,42.13
2023-03-12T00:31:57.356Z,29.52
2023-03-12T00:34:29.323Z,31.08
2023-03-12T00:36:59.665Z,31.50
2023-03-12T00:39:30.062Z,34.35
2023-03-12T00:42:00.516Z,28.05
2023-03-12T00:44:31.054Z,34.83
2023-03-12T00:47:03.967Z,36.03
2023-03-12T00:49:34.309Z,38.55
2023-03-12T00:52:04.615Z,29.33
2023-03-12T00:54:35.155Z,33.58
2023-03-12T00:57:05.499Z,36.65
2023-03-12T00:59:40.580Z,31.23
2023-03-12T01:02:14.088Z,38.30
2023-03-12T01:04:44.448Z,37.42
2023-03-12T01:07:14.850Z,45.25
2023-03-12T01:09:45.302Z,33.67
2023-03-12T01:12:15.661Z,36.22
2023-03-12T01:14:45.975Z,37.03
2023-03-12T01:17:18.982Z,35.22
2023-03-12T01:19:49.290Z,31.60
2023-03-12T01:22:19.673Z,37.90
2023-03-12T01:24:50.185Z,37.33
2023-03-12T01:27:20.549Z,31.92
2023-03-12T01:29:50.922Z,30.42
2023-03-12T01:32:23.937Z,35.30
2023-03-12T01:34:54.327Z,39.60
2023-03-12T01:37:24.874Z,33.35
2023-03-12T01:39:55.289Z,32.30
2023-03-12T01:42:25.617Z,37.30
2023-03-12T01:44:58.461Z,31.55
2023-03-12T01:47:36.318Z,39.55
2023-03-12T01:50:11.817Z,37.53
2023-03-12T01:52:43.118Z,40.58
2023-03-12T01:55:16.385Z,44.90
2023-03-12T01:57:51.942Z,40.17
2023-03-12T02:00:25.322Z,39.17
2023-03-12T02:03:06.160Z,43.17
2023-03-12T02:05:43.833Z,30.90
2023-03-12T02:08:16.020Z,38.95
2023-03-12T02:10:46.759Z,43.75
2023-03-12T02:13:17.724Z,43.88
2023-03-12T02:15:50.439Z,37.15
2023-03-12T02:18:24.591Z,31.38
2023-03-12T02:21:01.961Z,36.00
2023-03-12T02:23:36.499Z,36.25
2023-03-12T02:26:10.754Z,32.05
2023-03-12T02:28:45.999Z,33.83
2023-03-12T02:31:20.689Z,46.28
2023-03-12T02:33:52.986Z,38.97
2023-03-12T02:36:23.584Z,34.22
2023-03-12T02:38:55.392Z,34.60
2023-03-12T02:41:31.743Z,34.60
2023-03-12T02:44:05.749Z,39.67
2023-03-12T02:46:41.149Z,33.03
2023-03-12T02:49:12.702Z,26.75
2023-03-12T02:51:44.664Z,37.50
2023-03-12T02:54:17.275Z,31.02
2023-03-12T02:56:50.556Z,36.67
2023-03-12T02:59:25.973Z,34.08
2023-03-12T03:02:01.245Z,37.17
2023-03-12T03:04:35.007Z,41.45
2023-03-12T03:07:06.329Z,37.58
2023-03-12T03:09:37.208Z,33.65
2023-03-12T03:12:11.519Z,36.05
2023-03-12T03:14:42.367Z,33.00
2023-03-12T03:17:13.266Z,33.05
2023-03-12T03:19:44.251Z,31.42
2023-03-12T03:22:15.048Z,26.45
2023-03-12T03:24:46.238Z,24.85
2023-03-12T03:27:19.712Z,27.67
2023-03-12T03:32:20.457Z,32.13
2023-03-12T03:34:51.300Z,29.33
2023-03-12T03:37:22.775Z,26.67
2023-03-12T03:39:54.230Z,19.98
2023-03-12T03:42:27.884Z,17.67
2023-03-12T03:44:58.644Z,25.42
2023-03-12T03:47:29.526Z,24.75
2023-03-12T03:50:00.471Z,33.35
2023-03-12T03:52:31.348Z,30.50
2023-03-12T03:55:02.598Z,23.98
2023-03-12T03:57:37.286Z,22.95
2023-03-12T04:00:13.264Z,25.55
2023-03-12T04:02:48.196Z,31.23
2023-03-12T04:05:20.912Z,29.35
2023-03-12T04:07:55.021Z,24.48
2023-03-12T04:10:28.534Z,22.38
2023-03-12T04:13:01.636Z,27.00
2023-03-12T04:15:32.176Z,25.63
2023-03-12T04:18:02.986Z,32.25
2023-03-12T04:20:33.651Z,27.73
2023-03-12T04:23:04.066Z,29.52
2023-03-12T04:25:34.409Z,26.20
2023-03-12T04:28:08.225Z,30.35
2023-03-12T04:30:41.053Z,23.63
2023-03-12T04:33:14.415Z,26.67
2023-03-12T04:35:53.124Z,26.88
2023-03-12T04:38:26.020Z,29.92
2023-03-12T04:41:03.953Z,24.83
2023-03-12T04:43:37.187Z,21.75
2023-03-12T04:46:08.953Z,20.25
2023-03-12T04:48:40.280Z,29.23
2023-03-12T04:51:10.791Z,26.58
2023-03-12T04:53:41.499Z,26.08
2023-03-12T04:56:13.786Z,26.52
2023-03-12T04:58:47.952Z,20.88
2023-03-12T05:01:26.835Z,31.17
2023-03-12T05:03:58.019Z,23.52
2023-03-12T05:06:29.129Z,23.75
2023-03-12T05:09:00.475Z,33.05
2023-03-12T05:11:31.339Z,26.38
2023-03-12T05:14:04.714Z,31.85
2023-03-12T05:16:35.274Z,26.42
2023-03-12T05:19:05.884Z,31.63
2023-03-12T05:21:36.679Z,25.08
2023-03-12T05:24:08.014Z,25.13
2023-03-12T05:26:38.884Z,30.20
2023-03-12T05:29:18.358Z,28.27
2023-03-12T05:31:50.015Z,20.92
2023-03-12T05:34:20.580Z,23.50
2023-03-12T05:36:50.993Z,28.80
2023-03-12T05:39:25.942Z,32.13
2023-03-12T05:41:57.493Z,21.15
2023-03-12T05:44:31.262Z,24.80
2023-03-12T05:47:01.913Z,17.00
2023-03-12T05:49:32.277Z,19.63
2023-03-12T05:52:02.836Z,20.27
2023-03-12T05:54:36.398Z,24.40
2023-03-12T05:57:08.818Z,23.92
2023-03-12T05:59:41.864Z,30.05
2023-03-12T06:02:12.925Z,36.80
2023-03-12T06:04:44.490Z,19.70
2023-03-12T06:07:15.591Z,26.05
2023-03-12T06:09:45.819Z,24.85
2023-03-12T06:12:17.469Z,26.17
2023-03-12T06:14:51.049Z,30.15
2023-03-12T06:17:22.523Z,29.17
2023-03-12T06:19:54.238Z,30.05
2023-03-12T06:22:24.808Z,25.65
2023-03-12T06:24:55.148Z,24.27
2023-03-12T06:27:25.767Z,22.23
2023-03-12T06:29:58.800Z,25.35
2023-03-12T06:32:29.427Z,22.77
2023-03-12T06:35:00.843Z,34.70
2023-03-12T06:37:31.284Z,29.05
2023-03-12T06:40:01.633Z,26.10
2023-03-12T06:42:32.451Z,28.58
2023-03-12T06:45:05.343Z,30.25
2023-03-12T06:47:35.912Z,31.60
2023-03-12T06:50:06.620Z,29.08
2023-03-12T06:52:37.082Z,27.17
2023-03-12T06:55:08.322Z,30.40
2023-03-12T06:57:38.685Z,28.00
2023-03-12T07:00:13.608Z,30.50
2023-03-12T07:02:43.894Z,25.50
2023-03-12T07:05:14.230Z,26.52
2023-03-12T07:07:44.494Z,33.42
2023-03-12T07:10:15.251Z,28.00
2023-03-12T07:12:46.067Z,30.08
2023-03-12T07:15:19.288Z,28.55
2023-03-12T07:17:49.575Z,31.10
2023-03-12T07:20:20.356Z,28.63
2023-03-12T07:22:50.677Z,33.00
2023-03-12T07:25:21.075Z,32.28
2023-03-12T07:27:51.372Z,32.75
2023-03-12T07:30:24.847Z,35.60
2023-03-12T07:32:55.326Z,49.63
2023-03-12T07:35:25.774Z,41.08
2023-03-12T07:37:56.272Z,39.25
2023-03-12T07:40:26.618Z,39.95
2023-03-12T07:42:57.211Z,33.63
2023-03-12T07:45:30.275Z,34.15
2023-03-12T07:48:00.678Z,28.20
2023-03-12T07:50:31.069Z,37.28
2023-03-12T07:53:01.805Z,35.85
2023-03-12T07:55:32.972Z,43.58
2023-03-12T07:58:03.755Z,34.80
2023-03-12T08:00:36.739Z,41.90
2023-03-12T08:03:07.358Z,45.45
2023-03-12T08:05:37.911Z,37.80
2023-03-12T08:08:08.843Z,39.38
2023-03-12T08:10:40.152Z,38.28
2023-03-12T08:13:10.694Z,38.78
2023-03-12T08:15:44.943Z,32.90
2023-03-12T08:18:15.315Z,36.13
2023-03-12T08:20:45.627Z,27.80
2023-03-12T08:23:15.944Z,36.45
2023-03-12T08:25:48.210Z,38.08
2023-03-12T08:28:19.594Z,43.42
2023-03-12T08:30:55.815Z,33.30
2023-03-12T08:33:26.251Z,37.63
2023-03-12T08:35:56.893Z,37.42
2023-03-12T08:38:27.922Z,34.25
2023-03-12T08:41:00.568Z,32.25
2023-03-12T08:43:31.490Z,38.58
2023-03-12T08:46:06.074Z,35.13
2023-03-12T08:48:36.483Z,25.92
2023-03-12T08:51:07.695Z,31.70
2023-03-12T08:53:39.120Z,28.70
2023-03-12T08:56:10.391Z,30.80
2023-03-12T08:58:40.718Z,40.35
2023-03-12T09:01:15.736Z,39.17
2023-03-12T09:03:47.601Z,35.85
2023-03-12T09:06:19.545Z,32.45
2023-03-12T09:08:51.779Z,27.52
2023-03-12T09:11:22.075Z,36.45
2023-03-12T09:14:28.103Z,32.08
2023-03-12T09:16:45.372Z,31.60
2023-03-12T09:19:15.847Z,27.80
2023-03-12T09:21:46.374Z,47.60
2023-03-12T09:24:16.857Z,33.90
2023-03-12T09:26:47.385Z,33.53
2023-03-12T09:29:17.688Z,37.55
2023-03-12T09:31:50.693Z,33.38
2023-03-12T09:34:21.269Z,41.35
2023-03-12T09:36:52.240Z,40.95
2023-03-12T09:39:23.726Z,28.73
2023-03-12T09:41:54.732Z,34.60
2023-03-12T09:44:33.793Z,32.90
2023-03-12T09:47:12.673Z,27.30
2023-03-12T09:49:47.861Z,31.60
2023-03-12T09:52:27.693Z,40.83
2023-03-12T09:55:05.529Z,33.95
2023-03-12T09:57:36.612Z,31.77
2023-03-12T10:00:11.010Z,30.90
2023-03-12T10:03:05.364Z,30.48
2023-03-12T10:05:40.692Z,31.95
2023-03-12T10:08:26.078Z,32.67
2023-03-12T10:11:08.499Z,27.38
2023-03-12T10:13:50.352Z,27.90
2023-03-12T10:16:32.058Z,31.35
2023-03-12T10:19:26.525Z,30.52
2023-03-12T10:22:04.052Z,29.40
2023-03-12T10:24:43.739Z,31.13
2023-03-12T10:27:18.283Z,26.52
2023-03-12T10:29:51.535Z,30.05
2023-03-12T10:32:28.107Z,22.73
2023-03-12T10:35:03.714Z,31.10
2023-03-12T10:37:39.425Z,28.90
2023-03-12T10:40:15.746Z,25.67
2023-03-12T10:42:46.153Z,32.15
2023-03-12T10:45:34.761Z,34.58
2023-03-12T10:48:08.964Z,29.15
2023-03-12T10:50:43.510Z,31.70
2023-03-12T10:53:24.157Z,33.88
2023-03-12T10:56:06.478Z,28.23
2023-03-12T10:58:41.768Z,22.20
2023-03-12T11:01:23.218Z,32.88
2023-03-12T11:03:54.347Z,32.10
2023-03-12T11:06:29.741Z,28.52
2023-03-12T11:09:16.619Z,32.78
2023-03-12T11:11:48.316Z,23.70
2023-03-12T11:14:21.793Z,25.38
2023-03-12T11:16:52.841Z,27.42
2023-03-12T11:19:31.989Z,33.00
2023-03-12T11:22:07.790Z,24.27
2023-03-12T11:24:38.502Z,30.90
2023-03-12T11:27:13.293Z,36.83
2023-03-12T11:29:48.786Z,26.63
2023-03-12T11:32:22.277Z,35.45
2023-03-12T11:34:53.604Z,30.95
2023-03-12T11:37:38.542Z,26.73
2023-03-12T11:40:20.973Z,29.17
2023-03-12T11:43:13.742Z,29.60
2023-03-12T11:45:55.910Z,29.35
2023-03-12T11:48:31.796Z,35.60
2023-03-12T11:51:18.288Z,30.63
2023-03-12T11:54:15.047Z,29.40
2023-03-12T11:56:49.489Z,23.17
2023-03-12T11:59:34.214Z,30.20
2023-03-12T12:02:17.147Z,37.13
2023-03-12T12:05:20.732Z,34.17
2023-03-12T12:08:12.640Z,32.13
2023-03-12T12:10:55.177Z,31.83
2023-03-12T12:13:35.576Z,40.17
2023-03-12T12:16:22.034Z,32.13
2023-03-12T12:19:05.795Z,31.13
2023-03-12T12:21:50.450Z,28.17
2023-03-12T12:24:37.610Z,30.98
2023-03-12T12:27:21.753Z,31.60
2023-03-12T12:30:13.379Z,23.65
2023-03-12T12:33:02.674Z,33.88
2023-03-12T12:35:38.521Z,32.70
2023-03-12T12:38:13.564Z,23.95
2023-03-12T12:40:47.640Z,24.27
2023-03-12T12:43:28.241Z,24.13
2023-03-12T12:46:03.202Z,23.35
2023-03-12T12:48:38.283Z,28.63
2023-03-12T12:51:10.877Z,28.50
2023-03-12T12:53:49.368Z,30.63
2023-03-12T12:56:26.614Z,27.40
2023-03-12T12:59:12.777Z,23.33
2023-03-12T13:01:43.672Z,20.70
2023-03-12T13:04:18.774Z,27.92
2023-03-12T13:07:02.021Z,33.03
2023-03-12T13:09:43.551Z,28.65
2023-03-12T13:12:21.365Z,25.33
2023-03-12T13:14:55.686Z,24.92
2023-03-12T13:17:31.795Z,21.25
2023-03-12T13:20:20.766Z,26.73
2023-03-12T13:23:02.948Z,26.95
2023-03-12T13:25:50.379Z,28.85
2023-03-12T13:31:26.978Z,24.35
2023-03-12T13:34:00.017Z,24.33
2023-03-12T13:36:33.734Z,21.02
2023-03-12T13:39:21.731Z,24.27
2023-03-12T13:41:53.377Z,23.88
2023-03-12T13:44:33.275Z,20.83
2023-03-12T13:47:08.303Z,23.23
2023-03-12T13:49:46.504Z,26.58
2023-03-12T13:52:26.945Z,27.45
2023-03-12T13:55:03.785Z,26.52
2023-03-12T14:00:18.618Z,19.58
2023-03-12T14:02:55.042Z,21.73
2023-03-12T14:05:25.496Z,24.80
2023-03-12T14:08:12.596Z,23.77
2023-03-12T14:10:56.878Z,15.30
2023-03-12T14:13:42.458Z,20.42
2023-03-12T14:16:21.633Z,23.58
2023-03-12T14:18:55.362Z,15.05
2023-03-12T14:21:32.345Z,21.70
2023-03-12T14:24:05.019Z,19.38
2023-03-12T14:26:37.992Z,15.40
2023-03-12T14:29:12.863Z,16.70
2023-03-12T14:31:43.912Z,14.10
2023-03-12T14:34:21.932Z,15.50
2023-03-12T14:36:58.994Z,12.48
2023-03-12T14:39:33.741Z,19.60
2023-03-12T14:42:05.648Z,18.40
2023-03-12T14:44:37.654Z,14.10
2023-03-12T14:47:11.597Z,17.80
2023-03-12T14:49:47.840Z,14.50
2023-03-12T14:52:25.356Z,18.15
2023-03-12T14:55:00.422Z,17.05
2023-03-12T14:57:31.052Z,14.10
2023-03-12T15:00:03.080Z,17.90
2023-03-12T15:02:34.604Z,15.23
2023-03-12T15:05:08.238Z,15.65
2023-03-12T15:07:40.302Z,13.65
2023-03-12T15:10:21.212Z,18.73
2023-03-12T15:12:52.177Z,18.88
2023-03-12T15:15:37.102Z,14.13
2023-03-12T15:18:10.664Z,19.55
2023-03-12T15:20:43.977Z,16.88
2023-03-12T15:23:16.194Z,11.80
2023-03-12T15:25:46.751Z,13.23
2023-03-12T15:28:31.568Z,19.27
2023-03-12T15:31:11.898Z,17.88
2023-03-12T15:33:42.957Z,14.48
2023-03-12T15:36:29.073Z,15.40
2023-03-12T15:39:05.720Z,16.73
2023-03-12T15:41:49.291Z,15.85
2023-03-12T15:44:22.602Z,15.10
2023-03-12T15:46:56.225Z,14.55
2023-03-12T15:49:29.893Z,15.70
2023-03-12T15:52:08.966Z,14.05
2023-03-12T15:54:40.741Z,12.82
2023-03-12T15:57:25.932Z,16.00
2023-03-12T16:00:27.507Z,13.18
2023-03-12T16:03:00.466Z,16.88
2023-03-12T16:05:33.433Z,13.98
2023-03-12T16:08:17.047Z,10.35
2023-03-12T16:10:47.732Z,12.15
2023-03-12T16:13:20.386Z,9.32
2023-03-12T16:15:51.239Z,11.75
2023-03-12T16:18:23.338Z,7.75
2023-03-12T16:20:55.595Z,10.05
2023-03-12T16:23:28.556Z,9.27
2023-03-12T16:25:59.040Z,14.23
2023-03-12T16:28:29.768Z,7.90
2023-03-12T16:31:00.043Z,13.77
2023-03-12T16:33:30.323Z,4.90
2023-03-12T16:36:00.672Z,6.60
2023-03-12T16:38:33.675Z,5.78
2023-03-12T16:41:04.019Z,5.57
2023-03-12T16:43:38.339Z,5.88
2023-03-12T16:46:11.356Z,8.48
2023-03-12T16:48:42.007Z,7.90
2023-03-12T16:51:17.478Z,6.05
2023-03-12T16:54:02.015Z,7.10
2023-03-12T16:56:38.953Z,8.50
2023-03-12T16:59:17.627Z,6.22
2023-03-12T17:01:47.966Z,4.45
2023-03-12T17:04:18.305Z,3.38
2023-03-12T17:06:48.713Z,6.10
2023-03-12T17:09:22.439Z,3.75
2023-03-12T17:11:55.521Z,4.65
2023-03-12T17:14:26.291Z,5.13
2023-03-12T17:16:56.596Z,18.55
2023-03-12T17:19:26.880Z,4.60
2023-03-12T17:21:57.656Z,6.72
2023-03-12T17:24:30.553Z,4.43
2023-03-12T17:27:00.851Z,4.75
2023-03-12T17:29:31.196Z,2.83
2023-03-12T17:32:01.539Z,2.05
2023-03-12T17:34:31.830Z,2.33
2023-03-12T17:37:02.660Z,2.55
2023-03-12T17:39:36.737Z,2.97
2023-03-12T17:42:07.278Z,3.53
2023-03-12T17:44:39.126Z,2.63
2023-03-12T17:47:09.545Z,2.10
2023-03-12T17:49:39.947Z,3.75
2023-03-12T17:52:10.845Z,1.50
2023-03-12T17:54:43.869Z,2.17
2023-03-12T17:57:14.162Z,1.00
2023-03-12T17:59:44.495Z,1.98
2023-03-12T18:02:16.737Z,2.45
2023-03-12T18:04:47.092Z,2.72
2023-03-12T18:07:17.737Z,2.88
2023-03-12T18:09:50.816Z,3.85
2023-03-12T18:12:21.028Z,3.08
2023-03-12T18:14:51.396Z,3.85
2023-03-12T18:17:21.711Z,5.07
2023-03-12T18:19:51.995Z,2.05
2023-03-12T18:22:22.232Z,3.00
2023-03-12T18:24:55.046Z,2.45
2023-03-12T18:27:25.305Z,3.85
2023-03-12T18:29:55.647Z,2.58
2023-03-12T18:32:25.983Z,2.83
2023-03-12T18:34:56.908Z,3.20
2023-03-12T18:37:27.189Z,3.25
2023-03-12T18:40:00.166Z,4.53
2023-03-12T18:42:30.587Z,8.23
2023-03-12T18:45:00.852Z,4.55
2023-03-12T18:47:31.489Z,5.65
2023-03-12T18:50:01.752Z,7.80
2023-03-12T18:52:32.233Z,7.43
2023-03-12T18:55:05.154Z,5.32
2023-03-12T18:57:35.502Z,7.00
2023-03-12T19:00:06.419Z,5.57
2023-03-12T19:02:36.756Z,10.45
2023-03-12T19:05:07.639Z,9.23
2023-03-12T19:07:39.102Z,7.30
2023-03-12T19:10:14.455Z,12.57
2023-03-12T19:12:52.837Z,10.20
2023-03-12T19:15:26.109Z,13.60
2023-03-12T19:17:58.408Z,14.30
2023-03-12T19:20:28.870Z,17.10
2023-03-12T19:22:59.613Z,12.60
2023-03-12T19:25:33.857Z,18.20
2023-03-12T19:28:04.938Z,24.25
2023-03-12T19:30:35.280Z,19.38
2023-03-12T19:33:05.931Z,25.27
2023-03-12T19:35:37.593Z,33.58
2023-03-12T19:38:08.147Z,31.33
2023-03-12T19:40:41.157Z,34.55
2023-03-12T19:43:14.012Z,34.47
2023-03-12T19:45:47.358Z,30.13
2023-03-12T19:48:21.267Z,28.58
2023-03-12T19:50:54.152Z,24.92
2023-03-12T19:53:27.293Z,30.10
2023-03-12T19:56:03.437Z,35.60
2023-03-12T19:58:36.942Z,26.40
2023-03-12T20:01:13.286Z,35.65
2023-03-12T20:03:45.397Z,30.15
2023-03-12T20:06:18.016Z,30.45
2023-03-12T20:08:49.233Z,32.33
2023-03-12T20:11:22.255Z,27.92
2023-03-12T20:13:52.633Z,30.48
2023-03-12T20:16:23.056Z,35.30
2023-03-12T20:18:53.471Z,42.65
2023-03-12T20:21:23.754Z,28.73
2023-03-12T20:23:54.207Z,33.70
2023-03-12T20:26:27.287Z,27.25
2023-03-12T20:28:57.704Z,33.70
2023-03-12T20:31:28.097Z,36.63
2023-03-12T20:33:58.751Z,26.55
2023-03-12T20:36:29.196Z,25.20
2023-03-12T20:38:59.451Z,30.88
2023-03-12T20:41:32.455Z,25.70
2023-03-12T20:44:02.879Z,29.30
2023-03-12T20:46:33.370Z,28.05
2023-03-12T20:49:03.798Z,28.10
2023-03-12T20:51:34.219Z,29.95
2023-03-12T20:54:04.593Z,27.52
2023-03-12T20:56:39.324Z,31.70
2023-03-12T20:59:09.687Z,28.50
2023-03-12T21:01:40.169Z,37.83
2023-03-12T21:04:10.679Z,34.92
2023-03-12T21:06:41.073Z,29.90
2023-03-12T21:09:11.760Z,26.08
2023-03-12T21:11:44.661Z,34.20
2023-03-12T21:14:14.956Z,25.15
2023-03-12T21:16:45.275Z,29.45
2023-03-12T21:19:15.727Z,25.70
2023-03-12T21:21:46.111Z,27.23
2023-03-12T21:24:16.406Z,35.38
2023-03-12T21:26:49.352Z,31.23
2023-03-12T21:29:19.718Z,29.20
2023-03-12T21:31:51.890Z,22.38
2023-03-12T21:34:22.377Z,29.20
2023-03-12T21:36:52.724Z,29.65
2023-03-12T21:39:23.269Z,26.55
2023-03-12T21:41:56.288Z,26.23
2023-03-12T21:44:26.752Z,19.20
2023-03-12T21:46:57.139Z,29.10
2023-03-12T21:49:27.736Z,27.33
2023-03-12T21:51:57.973Z,26.48
2023-03-12T21:54:28.348Z,29.85
2023-03-12T21:57:02.771Z,25.15
2023-03-12T21:59:33.739Z,26.38
2023-03-12T22:02:04.105Z,23.15
2023-03-12T22:04:34.963Z,25.67
2023-03-12T22:07:05.289Z,25.90
2023-03-12T22:09:35.656Z,19.90
2023-03-12T22:12:09.016Z,25.30
2023-03-12T22:14:39.441Z,28.90
2023-03-12T22:17:09.743Z,29.08
2023-03-12T22:19:42.000Z,24.25
2023-03-12T22:22:12.437Z,30.40
2023-03-12T22:24:42.867Z,20.42
2023-03-12T22:27:15.811Z,24.10
2023-03-12T22:29:46.199Z,30.98
2023-03-12T22:32:16.522Z,23.30
2023-03-12T22:34:46.870Z,26.58
2023-03-12T22:37:17.538Z,25.80
2023-03-12T22:39:47.881Z,23.42
2023-03-12T22:42:20.831Z,23.70
2023-03-12T22:44:51.140Z,19.33
2023-03-12T22:47:21.565Z,22.25
2023-03-12T22:49:53.298Z,22.50
2023-03-12T22:52:23.723Z,18.02
2023-03-12T22:54:54.207Z,21.05
2023-03-12T22:57:27.117Z,19.95
2023-03-12T22:59:57.492Z,25.58
2023-03-12T23:02:27.879Z,19.02
2023-03-12T23:04:58.398Z,21.05
2023-03-12T23:07:28.696Z,20.88
2023-03-12T23:09:59.057Z,20.50
2023-03-12T23:12:32.487Z,23.33
2023-03-12T23:15:02.894Z,15.75
2023-03-12T23:17:33.364Z,16.15
2023-03-12T23:20:03.970Z,17.02
2023-03-12T23:22:35.529Z,15.60
2023-03-12T23:25:05.896Z,16.63
2023-03-12T23:27:38.789Z,19.02
2023-03-12T23:30:10.784Z,23.75
2023-03-12T23:32:41.244Z,21.10
2023-03-12T23:35:12.217Z,14.88
2023-03-12T23:37:42.550Z,16.08
2023-03-12T23:40:16.943Z,17.05
2023-03-12T23:42:49.844Z,14.90
2023-03-12T23:45:20.280Z,18.48
2023-03-12T23:47:50.680Z,12.18
2023-03-12T23:50:21.195Z,22.40
2023-03-12T23:52:51.487Z,13.68
2023-03-12T23:55:21.787Z,10.35
2023-03-12T23:57:54.681Z,17.77
